Terminal Aerodrome Forecast
Issued by NWS Pittsburgh, PA

Current Version | Previous Version | Graphics & Text | Print | Product List | Glossary On
Versions: 1 2 3 4 5 6 7 8 9 10 11 12 13 14 15 16 17 18 19 20 21 22 23 24 25 26 27
000
FTUS41 KPBZ 180530
TAFPIT
TAF
KPIT 180530Z 1806/1912 20005KT P6SM OVC060
     FM181200 22005KT P6SM OVC030
     FM181600 23008KT P6SM -DZ OVC008
     FM190000 23007KT P6SM OVC010
     FM190600 24008KT P6SM BKN006=

USA.gov is the U.S. government's official web portal to all federal, state and local government web resources and services.